Time;durP1;ratioP1;P1;durP2;ratioP2;P2;SDS_P1;SDS_P2;PMS_P1;PMS_P2;Temp;Humidity;BMP_temperature;BMP_pressure;BME280_temperature;BME280_humidity;BME280_pressure;Samples;Min_cycle;Max_cycle;Signal;HPM_P1;HPM_P2
2023/10/16 00:00:32;;;;;;;3.20;1.70;;;16.10;96.10;;;;;;5095643;28;20221;-87
2023/10/16 00:02:59;;;;;;;2.60;1.70;;;16.10;96.10;;;;;;5098516;28;20569;-88
2023/10/16 00:05:31;;;;;;;3.73;1.90;;;16.10;96.10;;;;;;5099713;28;20250;-88
2023/10/16 00:07:57;;;;;;;2.73;1.50;;;16.10;96.10;;;;;;5099849;28;20224;-88
2023/10/16 00:10:26;;;;;;;1.97;1.47;;;16.10;96.10;;;;;;5117304;28;20441;-88
2023/10/16 00:12:52;;;;;;;2.93;1.87;;;16.10;96.10;;;;;;5117545;28;20210;-88
2023/10/16 00:15:18;;;;;;;2.70;1.63;;;16.10;96.10;;;;;;5117310;28;20183;-88
2023/10/16 00:17:44;;;;;;;3.67;1.80;;;16.10;96.10;;;;;;5116052;28;20272;-88
2023/10/16 00:20:19;;;;;;;2.67;1.60;;;16.10;96.10;;;;;;5116005;28;20295;-88
2023/10/16 00:22:45;;;;;;;2.13;1.60;;;16.10;96.10;;;;;;5093097;28;20626;-88
2023/10/16 00:25:10;;;;;;;2.10;1.77;;;16.00;96.00;;;;;;5092785;28;20347;-88
2023/10/16 00:27:39;;;;;;;3.37;1.63;;;16.00;96.10;;;;;;5114306;28;20240;-88
2023/10/16 00:30:08;;;;;;;2.67;1.60;;;16.00;96.00;;;;;;5114781;28;20196;-88
2023/10/16 00:32:37;;;;;;;1.77;1.50;;;16.00;96.00;;;;;;5115308;28;20174;-87
2023/10/16 00:35:08;;;;;;;2.53;1.77;;;16.00;96.10;;;;;;5098075;28;20269;-87
2023/10/16 00:37:34;;;;;;;1.93;1.40;;;16.00;96.10;;;;;;5099619;28;20203;-87
2023/10/16 00:40:02;;;;;;;2.90;1.70;;;16.00;96.10;;;;;;5113505;28;20171;-87
2023/10/16 00:42:29;;;;;;;1.60;1.40;;;16.00;96.10;;;;;;5114167;28;20172;-87
2023/10/16 00:44:59;;;;;;;2.37;1.73;;;16.00;96.00;;;;;;5097257;28;20174;-87
2023/10/16 00:47:25;;;;;;;2.17;1.60;;;16.00;96.10;;;;;;5113966;28;20337;-87
2023/10/16 00:49:51;;;;;;;1.80;1.50;;;16.00;96.00;;;;;;5094448;28;20266;-87
2023/10/16 00:52:18;;;;;;;1.97;1.43;;;16.00;96.10;;;;;;5096451;28;20363;-87
2023/10/16 00:54:46;;;;;;;2.30;1.60;;;16.00;96.10;;;;;;5112208;28;20173;-87
2023/10/16 00:57:13;;;;;;;3.40;1.80;;;15.90;96.10;;;;;;5115166;28;20175;-87
2023/10/16 00:59:41;;;;;;;2.90;1.40;;;15.90;96.10;;;;;;5115473;28;20202;-87
2023/10/16 01:04:33;;;;;;;2.20;1.80;;;15.90;96.10;;;;;;5116064;28;20235;-87
2023/10/16 01:07:00;;;;;;;1.57;1.40;;;15.90;96.10;;;;;;5096762;28;20177;-87
2023/10/16 01:09:26;;;;;;;2.43;1.40;;;15.90;96.10;;;;;;5113489;28;20269;-87
2023/10/16 01:11:54;;;;;;;2.43;1.73;;;15.90;96.00;;;;;;5096718;28;20347;-87
2023/10/16 01:14:20;;;;;;;1.97;1.47;;;15.90;96.10;;;;;;5076352;28;20175;-87
2023/10/16 01:16:46;;;;;;;2.20;1.40;;;15.90;96.10;;;;;;5090955;28;20238;-87
2023/10/16 01:19:19;;;;;;;1.83;1.50;;;15.90;96.00;;;;;;5101087;28;20449;-87
2023/10/16 01:21:46;;;;;;;1.93;1.30;;;15.90;96.00;;;;;;5115605;28;20616;-87
2023/10/16 01:24:12;;;;;;;4.27;1.50;;;15.90;96.00;;;;;;5115580;28;20554;-88
2023/10/16 01:26:40;;;;;;;2.47;1.43;;;15.80;96.00;;;;;;5115771;28;20183;-87
2023/10/16 01:29:08;;;;;;;2.17;1.30;;;15.80;96.00;;;;;;5098033;28;20172;-87
2023/10/16 01:31:44;;;;;;;2.67;1.33;;;15.80;96.00;;;;;;5098559;28;20551;-87
2023/10/16 01:34:13;;;;;;;1.73;1.43;;;15.80;96.00;;;;;;5116069;28;20323;-87
2023/10/16 01:36:45;;;;;;;1.83;1.37;;;15.80;96.00;;;;;;5115190;28;20566;-87
2023/10/16 01:39:47;;;;;;;2.17;1.50;;;15.80;96.00;;;;;;5107086;28;20178;-87
2023/10/16 01:42:01;;;;;;;2.93;1.40;;;15.80;96.00;;;;;;5115202;28;20206;-87
2023/10/16 01:44:28;;;;;;;2.30;1.60;;;15.80;96.00;;;;;;5113927;28;20163;-87
2023/10/16 01:46:54;;;;;;;1.73;1.40;;;15.80;96.00;;;;;;5096420;28;20325;-87
2023/10/16 01:49:24;;;;;;;1.70;1.40;;;15.80;96.00;;;;;;5095554;28;20295;-87
2023/10/16 01:51:53;;;;;;;2.20;1.50;;;15.80;96.00;;;;;;5110415;28;20179;-87
2023/10/16 01:54:22;;;;;;;2.70;1.23;;;15.80;96.00;;;;;;5108745;28;20540;-87
2023/10/16 01:56:49;;;;;;;3.00;1.67;;;15.80;96.00;;;;;;5109643;28;20605;-87
2023/10/16 01:59:15;;;;;;;2.80;1.60;;;15.80;95.90;;;;;;5110272;28;20451;-87
2023/10/16 02:01:41;;;;;;;2.63;1.63;;;15.70;95.90;;;;;;5092866;28;20253;-87
2023/10/16 02:04:07;;;;;;;2.23;1.60;;;15.70;95.90;;;;;;5093589;28;20179;-87
2023/10/16 02:06:33;;;;;;;1.80;1.40;;;15.70;95.80;;;;;;5113306;28;20185;-87
2023/10/16 02:08:59;;;;;;;1.60;1.50;;;15.70;95.80;;;;;;5110756;28;20565;-88
2023/10/16 02:11:26;;;;;;;1.70;1.30;;;15.70;95.80;;;;;;5113864;28;20193;-88
2023/10/16 02:13:51;;;;;;;1.97;1.53;;;15.70;95.80;;;;;;5104932;28;20189;-88
2023/10/16 02:16:18;;;;;;;2.20;1.47;;;15.70;95.80;;;;;;5113768;28;20562;-88
2023/10/16 02:18:45;;;;;;;2.43;1.40;;;15.70;95.70;;;;;;5096584;28;20180;-88
2023/10/16 02:21:14;;;;;;;1.53;1.30;;;15.70;95.80;;;;;;5114397;28;20190;-88
2023/10/16 02:23:43;;;;;;;2.47;1.50;;;15.70;95.80;;;;;;5096282;28;20165;-88
2023/10/16 02:26:09;;;;;;;2.03;1.27;;;15.70;95.80;;;;;;5113726;28;20446;-87
2023/10/16 02:28:46;;;;;;;1.60;1.40;;;15.60;95.70;;;;;;5113873;28;20630;-87
2023/10/16 02:31:19;;;;;;;2.20;1.30;;;15.60;95.80;;;;;;5113567;28;20167;-87
2023/10/16 02:34:09;;;;;;;2.03;1.20;;;15.60;95.80;;;;;;5096044;28;20211;-87
2023/10/16 02:36:35;;;;;;;1.40;1.20;;;15.60;95.80;;;;;;5096622;28;20173;-87
2023/10/16 02:39:07;;;;;;;2.23;1.30;;;15.60;95.80;;;;;;5096821;28;20172;-87
2023/10/16 02:41:33;;;;;;;1.10;1.00;;;15.60;95.80;;;;;;5114698;28;20194;-87
2023/10/16 02:43:59;;;;;;;2.37;1.30;;;15.60;95.80;;;;;;5096102;28;20173;-86
2023/10/16 02:46:25;;;;;;;1.57;1.33;;;15.60;95.70;;;;;;5104838;28;20174;-86
2023/10/16 02:48:53;;;;;;;2.67;1.30;;;15.60;95.60;;;;;;5113461;28;20175;-86
2023/10/16 02:51:20;;;;;;;1.73;1.20;;;15.60;95.50;;;;;;5107392;28;20175;-86
2023/10/16 02:53:49;;;;;;;1.40;1.30;;;15.60;95.50;;;;;;5114029;28;20194;-86
2023/10/16 02:56:14;;;;;;;1.93;1.40;;;15.60;95.50;;;;;;5114432;28;20186;-86
2023/10/16 02:58:46;;;;;;;1.90;1.37;;;15.60;95.50;;;;;;5099822;28;20174;-86
2023/10/16 03:01:15;;;;;;;2.00;1.40;;;15.50;95.50;;;;;;5084362;28;20710;-86
2023/10/16 03:03:43;;;;;;;2.17;1.43;;;15.50;95.50;;;;;;5116393;28;20159;-86
2023/10/16 03:06:10;;;;;;;1.73;1.37;;;15.60;95.50;;;;;;5099482;28;20501;-86
2023/10/16 03:08:36;;;;;;;1.80;1.20;;;15.50;95.60;;;;;;5098436;28;20177;-86
2023/10/16 03:11:06;;;;;;;1.50;1.27;;;15.50;95.60;;;;;;5097518;28;20234;-86
2023/10/16 03:13:36;;;;;;;1.43;1.30;;;15.50;95.60;;;;;;5115633;28;20232;-86
2023/10/16 03:16:07;;;;;;;2.13;1.30;;;15.50;95.70;;;;;;5097717;28;20170;-86
2023/10/16 03:18:34;;;;;;;2.43;1.37;;;15.50;95.70;;;;;;5099017;28;20566;-86
2023/10/16 03:23:45;;;;;;;1.67;1.40;;;15.50;95.70;;;;;;5096452;28;20398;-86
2023/10/16 03:28:47;;;;;;;1.47;1.30;;;15.50;95.60;;;;;;5114998;28;20177;-87
2023/10/16 03:31:14;;;;;;;1.77;1.40;;;15.50;95.70;;;;;;5114578;28;20208;-86
2023/10/16 03:33:39;;;;;;;1.60;1.27;;;15.50;95.70;;;;;;5096587;28;20227;-86
2023/10/16 03:36:05;;;;;;;1.57;1.40;;;15.50;95.60;;;;;;5095500;28;20184;-86
2023/10/16 03:38:37;;;;;;;1.80;1.20;;;15.40;95.60;;;;;;5111978;28;20226;-86
2023/10/16 03:41:40;;;;;;;1.93;1.37;;;15.40;95.60;;;;;;5114849;28;20202;-86
2023/10/16 03:44:06;;;;;;;1.57;1.30;;;15.40;95.60;;;;;;5111737;28;20281;-86
2023/10/16 03:46:33;;;;;;;1.37;1.13;;;15.40;95.60;;;;;;5096233;28;20191;-86
2023/10/16 03:49:00;;;;;;;1.87;1.30;;;15.40;95.50;;;;;;5097606;28;20180;-86
2023/10/16 03:51:26;;;;;;;1.40;1.20;;;15.40;95.50;;;;;;5113333;28;20463;-86
2023/10/16 03:53:56;;;;;;;1.50;1.20;;;15.40;95.50;;;;;;5114715;28;20597;-87
2023/10/16 03:56:24;;;;;;;1.53;1.30;;;15.40;95.50;;;;;;5115219;28;20175;-87
2023/10/16 03:58:53;;;;;;;1.50;1.20;;;15.40;95.50;;;;;;5098186;28;20178;-87
2023/10/16 04:01:27;;;;;;;1.50;1.40;;;15.40;95.50;;;;;;5095656;28;20190;-87
2023/10/16 04:03:56;;;;;;;2.00;1.13;;;15.40;95.60;;;;;;5108233;28;20517;-87
2023/10/16 04:06:23;;;;;;;1.40;1.20;;;15.40;95.50;;;;;;5114810;28;20269;-87
2023/10/16 04:08:54;;;;;;;1.83;1.40;;;15.40;95.50;;;;;;5095554;28;20163;-87
2023/10/16 04:11:21;;;;;;;1.67;1.43;;;15.30;95.40;;;;;;5096666;28;20172;-87
2023/10/16 04:13:49;;;;;;;1.60;1.20;;;15.30;95.50;;;;;;5093570;28;20177;-87
2023/10/16 04:21:44;;;;;;;2.10;1.40;;;15.30;95.40;;;;;;5111115;28;20193;-87
2023/10/16 04:26:57;;;;;;;1.67;1.37;;;15.30;95.40;;;;;;5112239;28;20436;-87
2023/10/16 04:29:28;;;;;;;2.33;1.07;;;15.30;95.30;;;;;;5100319;28;20173;-87
2023/10/16 04:47:56;;;;;;;1.20;1.10;;;15.20;95.50;;;;;;5113747;28;20158;-87
2023/10/16 05:03:23;;;;;;;1.63;1.30;;;15.20;95.50;;;;;;5110415;28;20169;-87
2023/10/16 05:15:20;;;;;;;1.30;1.10;;;15.20;95.50;;;;;;5109319;28;20173;-87
2023/10/16 05:17:59;;;;;;;1.30;1.20;;;15.20;95.50;;;;;;5109702;28;20177;-87
2023/10/16 06:14:50;;;;;;;2.00;1.40;;;15.10;96.70;;;;;;5104406;28;20466;-88
2023/10/16 06:17:15;;;;;;;2.77;1.67;;;15.10;96.90;;;;;;5093893;28;20441;-88
2023/10/16 06:19:45;;;;;;;2.57;1.40;;;15.10;97.10;;;;;;5105127;28;20160;-88
2023/10/16 06:22:12;;;;;;;2.00;1.47;;;15.10;97.10;;;;;;5085218;28;20203;-88
2023/10/16 06:24:50;;;;;;;5.27;1.80;;;15.10;97.20;;;;;;5085426;28;20179;-88
2023/10/16 06:27:19;;;;;;;4.07;1.80;;;15.10;97.30;;;;;;5104211;28;20204;-88
2023/10/16 06:29:51;;;;;;;3.87;1.63;;;15.10;97.40;;;;;;5086775;28;20444;-88
2023/10/16 06:32:22;;;;;;;6.73;1.80;;;15.10;97.40;;;;;;5085184;28;20474;-88
2023/10/16 06:34:49;;;;;;;2.53;1.67;;;15.10;97.40;;;;;;5086168;28;20190;-89
2023/10/16 06:37:19;;;;;;;3.53;1.80;;;15.20;97.80;;;;;;5088457;28;20184;-86
2023/10/16 06:39:46;;;;;;;3.27;1.90;;;15.20;97.60;;;;;;5086416;28;20206;-86
2023/10/16 06:42:18;;;;;;;3.80;1.93;;;15.20;97.70;;;;;;5086034;28;20338;-86
2023/10/16 06:44:56;;;;;;;3.63;1.80;;;15.10;97.60;;;;;;5105872;28;20347;-86
2023/10/16 06:47:35;;;;;;;4.37;2.00;;;15.20;98.00;;;;;;5104407;28;20195;-87
2023/10/16 06:53:00;;;;;;;3.73;1.93;;;15.20;97.60;;;;;;5065644;28;20171;-87
2023/10/16 06:55:26;;;;;;;5.97;1.97;;;15.20;97.50;;;;;;5086485;28;20174;-89
2023/10/16 06:57:52;;;;;;;4.10;1.90;;;15.20;97.60;;;;;;5096876;28;20412;-89
2023/10/16 07:00:33;;;;;;;6.97;2.37;;;15.20;97.50;;;;;;5102315;28;20171;-89
2023/10/16 07:03:21;;;;;;;2.73;2.00;;;15.30;97.60;;;;;;5083518;28;20173;-88
2023/10/16 07:05:48;;;;;;;7.23;2.20;;;15.20;97.50;;;;;;5100777;28;20170;-88
2023/10/16 07:08:16;;;;;;;5.00;2.00;;;15.30;97.50;;;;;;5082734;28;20177;-88
2023/10/16 07:10:55;;;;;;;4.20;2.63;;;15.30;97.50;;;;;;5084204;28;20395;-88
2023/10/16 07:13:27;;;;;;;4.03;2.23;;;15.30;97.50;;;;;;5083759;28;20389;-88
2023/10/16 07:15:59;;;;;;;3.97;2.13;;;15.30;97.40;;;;;;5085764;28;20178;-88
2023/10/16 07:18:26;;;;;;;4.00;2.60;;;15.30;97.40;;;;;;5083071;28;20168;-88
2023/10/16 07:23:34;;;;;;;3.90;2.37;;;15.30;97.40;;;;;;5100624;28;20162;-88
2023/10/16 07:26:00;;;;;;;4.83;2.50;;;15.30;97.40;;;;;;5084102;28;20271;-88
2023/10/16 07:28:27;;;;;;;4.73;2.20;;;15.30;97.40;;;;;;5103220;28;20627;-88
2023/10/16 07:30:58;;;;;;;3.03;2.03;;;15.30;97.30;;;;;;5086972;28;20429;-88
2023/10/16 07:33:25;;;;;;;5.23;2.37;;;15.30;97.30;;;;;;5087920;28;20237;-88
2023/10/16 07:35:52;;;;;;;3.10;2.30;;;15.40;97.30;;;;;;5087214;28;20510;-87
2023/10/16 07:38:20;;;;;;;3.97;2.20;;;15.40;97.30;;;;;;5086618;28;20198;-87
2023/10/16 07:40:52;;;;;;;4.33;2.43;;;15.40;97.30;;;;;;5069597;28;20212;-87
2023/10/16 07:43:29;;;;;;;3.80;2.50;;;15.40;97.20;;;;;;5089301;28;20299;-88
2023/10/16 07:48:37;;;;;;;5.20;2.63;;;15.40;97.20;;;;;;5105119;28;20442;-87
2023/10/16 07:51:06;;;;;;;4.03;2.57;;;15.50;97.40;;;;;;5085716;28;20183;-87
2023/10/16 07:53:34;;;;;;;4.97;2.43;;;15.50;97.20;;;;;;5086556;28;20558;-87
2023/10/16 07:56:02;;;;;;;5.10;2.33;;;15.50;97.30;;;;;;5088126;28;20520;-87
2023/10/16 07:58:34;;;;;;;4.30;2.50;;;15.50;97.30;;;;;;5088856;28;20172;-87
2023/10/16 08:03:36;;;;;;;5.57;2.53;;;15.50;97.30;;;;;;5105575;28;20243;-87
2023/10/16 08:06:05;;;;;;;5.30;2.57;;;15.50;97.40;;;;;;5105725;28;20379;-87
2023/10/16 08:08:38;;;;;;;6.90;2.67;;;15.50;97.70;;;;;;5089714;28;20258;-87
2023/10/16 08:11:18;;;;;;;6.57;2.87;;;15.60;97.30;;;;;;5086292;28;20171;-87
2023/10/16 08:13:46;;;;;;;7.57;2.90;;;15.60;97.50;;;;;;5087857;28;20246;-87
2023/10/16 08:16:19;;;;;;;7.17;3.00;;;15.60;97.50;;;;;;5087531;28;20230;-87
2023/10/16 08:18:48;;;;;;;6.33;3.10;;;15.60;97.40;;;;;;5105223;28;20432;-87
2023/10/16 08:21:24;;;;;;;7.47;3.30;;;15.60;97.50;;;;;;5101526;28;20298;-87
2023/10/16 08:23:58;;;;;;;5.67;3.07;;;15.60;97.30;;;;;;5087725;28;20179;-87
2023/10/16 08:26:41;;;;;;;5.47;3.50;;;15.60;97.20;;;;;;5105219;28;20164;-87
2023/10/16 08:31:47;;;;;;;9.23;3.30;;;15.60;96.90;;;;;;5100929;28;20200;-87
2023/10/16 08:34:19;;;;;;;5.67;2.87;;;15.60;97.10;;;;;;5086441;28;20189;-87
2023/10/16 08:36:52;;;;;;;6.80;3.50;;;15.60;97.00;;;;;;5086667;28;20173;-88
2023/10/16 08:39:19;;;;;;;6.37;3.60;;;15.60;97.00;;;;;;5091481;28;20325;-87
2023/10/16 08:41:51;;;;;;;6.23;3.93;;;15.60;96.90;;;;;;5089933;28;20202;-87
2023/10/16 08:44:18;;;;;;;4.67;3.27;;;15.60;96.70;;;;;;5103805;28;20172;-87
2023/10/16 08:49:25;;;;;;;7.33;3.67;;;15.60;96.70;;;;;;5105523;28;20325;-87
2023/10/16 08:52:17;;;;;;;7.13;3.60;;;15.60;96.60;;;;;;5087705;28;20265;-87
2023/10/16 08:57:20;;;;;;;5.40;3.57;;;15.70;96.70;;;;;;5103233;28;20701;-87
2023/10/16 08:59:50;;;;;;;7.50;3.80;;;15.70;96.50;;;;;;5105060;28;20177;-87
2023/10/16 09:02:20;;;;;;;7.77;4.10;;;15.70;96.50;;;;;;5104373;28;20489;-89
2023/10/16 09:04:49;;;;;;;7.00;4.00;;;15.70;96.50;;;;;;5086929;28;20339;-88
2023/10/16 09:07:19;;;;;;;10.43;4.43;;;15.70;96.60;;;;;;5085425;28;20176;-88
2023/10/16 09:09:48;;;;;;;8.23;3.97;;;15.70;96.30;;;;;;5085196;28;20184;-88
2023/10/16 09:12:27;;;;;;;10.37;3.97;;;15.70;96.40;;;;;;5086114;28;20614;-88
2023/10/16 09:15:05;;;;;;;7.90;3.73;;;15.70;96.40;;;;;;5085316;28;20174;-88
2023/10/16 09:17:34;;;;;;;6.30;3.80;;;15.60;96.40;;;;;;5085684;28;20335;-89
2023/10/16 09:20:17;;;;;;;8.20;3.90;;;15.70;96.60;;;;;;5106634;28;20166;-88
2023/10/16 09:22:46;;;;;;;7.40;3.77;;;15.70;96.50;;;;;;5087279;28;20169;-88
2023/10/16 09:25:22;;;;;;;7.80;4.00;;;15.70;96.40;;;;;;5085422;28;20310;-88
2023/10/16 09:27:49;;;;;;;9.23;4.00;;;15.70;96.50;;;;;;5097972;28;20175;-88
2023/10/16 09:30:15;;;;;;;8.30;3.87;;;15.80;96.50;;;;;;5086631;28;20180;-88
2023/10/16 09:32:43;;;;;;;7.67;3.97;;;15.80;96.60;;;;;;5101473;28;20169;-88
2023/10/16 09:35:12;;;;;;;8.33;4.37;;;15.80;96.70;;;;;;5086764;28;20192;-88
2023/10/16 09:37:47;;;;;;;5.80;3.73;;;15.80;96.60;;;;;;5101889;28;20253;-88
2023/10/16 09:40:35;;;;;;;7.63;4.23;;;15.80;96.60;;;;;;5094130;28;20174;-88
2023/10/16 09:43:06;;;;;;;8.33;4.10;;;15.80;96.60;;;;;;5100325;28;20222;-88
2023/10/16 09:45:38;;;;;;;6.80;3.80;;;15.80;96.60;;;;;;5084837;28;20360;-88
2023/10/16 09:48:09;;;;;;;12.37;4.87;;;15.90;96.70;;;;;;5109127;28;20413;-88
2023/10/16 09:50:38;;;;;;;6.23;3.37;;;15.90;96.70;;;;;;5104944;28;20447;-88
2023/10/16 09:53:08;;;;;;;7.10;3.83;;;15.90;96.60;;;;;;5088736;28;20177;-87
2023/10/16 09:55:44;;;;;;;6.97;3.53;;;15.90;96.60;;;;;;5087071;28;20170;-87
2023/10/16 09:58:11;;;;;;;5.67;3.53;;;15.90;96.50;;;;;;5084671;28;20169;-87
2023/10/16 10:00:46;;;;;;;6.93;3.90;;;15.90;96.50;;;;;;5085089;28;20208;-88
2023/10/16 10:03:14;;;;;;;5.23;3.60;;;16.00;96.50;;;;;;5083553;28;20174;-88
2023/10/16 10:08:52;;;;;;;6.03;3.57;;;16.00;96.30;;;;;;5103928;28;20161;-89
2023/10/16 10:12:13;;;;;;;6.73;3.70;;;16.10;96.30;;;;;;5095942;28;20645;-88
2023/10/16 10:14:50;;;;;;;6.30;3.67;;;16.20;96.20;;;;;;5030042;28;20183;-88
2023/10/16 10:17:20;;;;;;;7.37;3.77;;;16.20;96.10;;;;;;5085556;28;20318;-88
2023/10/16 10:19:54;;;;;;;7.07;3.50;;;16.20;96.00;;;;;;5083634;28;20171;-89
2023/10/16 10:22:27;;;;;;;5.43;3.30;;;16.20;96.00;;;;;;5084926;28;20221;-89
2023/10/16 10:25:16;;;;;;;5.43;3.43;;;16.20;96.00;;;;;;5103168;28;20161;-89
2023/10/16 10:27:43;;;;;;;3.60;2.90;;;16.20;95.90;;;;;;5102643;28;20249;-89
2023/10/16 10:30:25;;;;;;;4.53;3.17;;;16.30;95.90;;;;;;5100844;28;20166;-88
2023/10/16 10:32:57;;;;;;;5.13;3.10;;;16.30;95.90;;;;;;5084804;28;20261;-89
2023/10/16 10:35:30;;;;;;;6.20;3.23;;;16.30;95.90;;;;;;5082330;28;20568;-88
2023/10/16 10:38:24;;;;;;;4.97;3.33;;;16.30;95.90;;;;;;5084251;28;20172;-89
2023/10/16 10:41:10;;;;;;;6.03;3.20;;;16.30;95.90;;;;;;5084177;28;20354;-89
2023/10/16 10:43:50;;;;;;;5.27;3.00;;;16.30;96.10;;;;;;5083504;28;20258;-89
2023/10/16 10:46:25;;;;;;;5.77;2.93;;;16.40;95.70;;;;;;5081526;28;20162;-89
2023/10/16 10:48:54;;;;;;;5.40;2.80;;;16.50;95.50;;;;;;5099103;28;20174;-87
2023/10/16 10:51:20;;;;;;;5.03;2.93;;;16.60;95.30;;;;;;5082748;28;20158;-87
2023/10/16 10:53:59;;;;;;;4.97;2.90;;;16.70;95.10;;;;;;5085679;28;20202;-87
2023/10/16 10:56:47;;;;;;;5.67;2.90;;;16.70;94.80;;;;;;5082225;28;20412;-88
2023/10/16 10:59:40;;;;;;;5.43;2.90;;;16.80;94.70;;;;;;5083858;28;20182;-89
2023/10/16 11:04:53;;;;;;;4.30;3.10;;;16.80;94.70;;;;;;5100475;28;20170;-89
2023/10/16 11:07:28;;;;;;;6.03;3.00;;;16.70;94.80;;;;;;5078285;28;20602;-89
2023/10/16 11:09:59;;;;;;;6.23;3.10;;;16.70;95.00;;;;;;5101217;28;20392;-88
2023/10/16 11:12:25;;;;;;;7.67;3.17;;;16.60;95.10;;;;;;5080626;28;20170;-88
2023/10/16 11:14:53;;;;;;;4.33;2.90;;;16.60;95.30;;;;;;5099584;28;20175;-87
2023/10/16 11:17:38;;;;;;;4.30;2.83;;;16.60;95.50;;;;;;5084469;28;20170;-87
2023/10/16 11:22:53;;;;;;;4.13;2.60;;;16.60;95.60;;;;;;5102766;28;20190;-87
2023/10/16 11:25:20;;;;;;;5.23;3.20;;;16.60;95.70;;;;;;5105489;28;20181;-88
2023/10/16 11:27:47;;;;;;;5.80;2.90;;;16.60;95.60;;;;;;5104967;28;20190;-88
2023/10/16 11:30:15;;;;;;;4.97;3.03;;;16.60;95.70;;;;;;5101253;28;20271;-88
2023/10/16 11:32:47;;;;;;;6.13;2.77;;;16.60;95.70;;;;;;5082039;28;20269;-87
2023/10/16 11:35:17;;;;;;;7.97;2.90;;;16.60;95.50;;;;;;5083122;28;20468;-87
2023/10/16 11:37:52;;;;;;;4.70;2.60;;;16.60;95.60;;;;;;5085398;28;20197;-88
2023/10/16 11:40:18;;;;;;;4.50;2.70;;;16.60;95.70;;;;;;5065545;28;20239;-88
2023/10/16 11:42:45;;;;;;;4.57;2.63;;;16.60;95.70;;;;;;5083981;28;20173;-88
2023/10/16 11:45:18;;;;;;;4.60;2.60;;;16.60;95.70;;;;;;5088370;28;20662;-87
2023/10/16 11:47:44;;;;;;;4.97;2.60;;;16.60;95.70;;;;;;5104319;28;20257;-88
2023/10/16 11:50:17;;;;;;;3.23;2.40;;;16.60;95.70;;;;;;5104431;28;20176;-88
2023/10/16 11:52:43;;;;;;;5.00;2.83;;;16.60;95.70;;;;;;5086245;28;20170;-88
2023/10/16 11:55:09;;;;;;;3.60;2.30;;;16.60;95.70;;;;;;5102283;28;20605;-88
2023/10/16 11:57:35;;;;;;;5.13;2.73;;;16.60;95.70;;;;;;5086218;28;20197;-88
2023/10/16 12:00:16;;;;;;;4.80;3.10;;;16.60;95.60;;;;;;5104885;28;20170;-88
2023/10/16 12:02:46;;;;;;;3.90;2.20;;;16.60;95.70;;;;;;5086527;28;20200;-88
2023/10/16 12:05:12;;;;;;;3.63;2.60;;;16.60;95.70;;;;;;5103198;28;20265;-88
2023/10/16 12:07:43;;;;;;;4.17;2.80;;;16.60;95.60;;;;;;5086238;28;20265;-88
2023/10/16 12:10:15;;;;;;;3.50;2.60;;;16.60;95.60;;;;;;5101752;28;20173;-88
2023/10/16 12:12:41;;;;;;;2.87;2.40;;;16.60;95.60;;;;;;5085729;28;20356;-88
2023/10/16 12:15:10;;;;;;;4.67;2.70;;;16.60;95.60;;;;;;5087138;28;20207;-88
2023/10/16 12:17:36;;;;;;;3.90;2.60;;;16.60;95.60;;;;;;5086510;28;20647;-88
2023/10/16 12:20:09;;;;;;;4.57;2.73;;;16.60;95.60;;;;;;5092765;28;20177;-88
2023/10/16 12:22:39;;;;;;;3.23;2.30;;;16.60;95.60;;;;;;5088635;28;20509;-88
2023/10/16 12:25:08;;;;;;;3.77;2.30;;;16.70;95.60;;;;;;5102717;28;20167;-87
2023/10/16 12:27:34;;;;;;;3.90;2.60;;;16.70;95.60;;;;;;5086484;28;20349;-87
2023/10/16 12:30:01;;;;;;;3.77;2.80;;;16.70;95.70;;;;;;5098905;28;20309;-87
2023/10/16 12:32:28;;;;;;;4.40;2.70;;;16.70;95.60;;;;;;5104749;28;20184;-87
2023/10/16 12:34:54;;;;;;;3.90;2.40;;;16.70;95.60;;;;;;5098408;28;20213;-87
2023/10/16 12:37:22;;;;;;;3.30;2.20;;;16.70;95.70;;;;;;5085509;28;20170;-87
2023/10/16 12:39:48;;;;;;;3.63;2.23;;;16.70;95.70;;;;;;5101642;28;20441;-87
2023/10/16 12:42:15;;;;;;;3.27;2.40;;;16.60;95.70;;;;;;5084007;28;20726;-87
2023/10/16 12:44:41;;;;;;;2.77;2.30;;;16.60;95.70;;;;;;5099505;28;20161;-87
2023/10/16 12:47:07;;;;;;;2.80;2.37;;;16.60;95.80;;;;;;5103452;28;20680;-87
2023/10/16 12:49:33;;;;;;;2.83;2.20;;;16.60;95.80;;;;;;5100711;28;20170;-87
2023/10/16 12:52:00;;;;;;;3.93;2.60;;;16.60;95.80;;;;;;5087915;28;20314;-87
2023/10/16 12:54:26;;;;;;;3.77;2.33;;;16.60;95.80;;;;;;5101473;28;20234;-87
2023/10/16 12:56:53;;;;;;;3.03;2.20;;;16.60;95.90;;;;;;5102482;28;20186;-87
2023/10/16 12:59:22;;;;;;;2.60;2.10;;;16.70;95.90;;;;;;5100317;28;20173;-87
2023/10/16 13:01:49;;;;;;;3.13;2.23;;;16.70;95.90;;;;;;5069908;28;20194;-87
2023/10/16 13:04:17;;;;;;;3.23;2.40;;;16.60;95.90;;;;;;5084419;28;20177;-87
2023/10/16 13:06:43;;;;;;;3.77;2.40;;;16.70;96.00;;;;;;5085223;28;20532;-87
2023/10/16 13:09:17;;;;;;;3.90;2.40;;;16.70;96.00;;;;;;5086034;28;20171;-87
2023/10/16 13:11:45;;;;;;;2.90;2.47;;;16.70;96.00;;;;;;5092780;28;20170;-87
2023/10/16 13:14:11;;;;;;;2.70;2.17;;;16.70;96.00;;;;;;5084047;28;20201;-87
2023/10/16 13:16:50;;;;;;;3.87;2.17;;;16.70;96.00;;;;;;5082781;28;20514;-87
2023/10/16 13:19:18;;;;;;;2.70;2.03;;;16.70;96.00;;;;;;5083227;28;20301;-87
2023/10/16 13:21:51;;;;;;;3.23;2.20;;;16.70;96.00;;;;;;5084767;28;20201;-86
2023/10/16 13:24:20;;;;;;;3.57;2.50;;;16.70;96.00;;;;;;5101900;28;20174;-86
2023/10/16 13:26:52;;;;;;;3.00;2.40;;;16.70;96.10;;;;;;5090205;28;20161;-86
2023/10/16 13:29:18;;;;;;;3.80;2.70;;;16.70;96.10;;;;;;5086621;28;20203;-86
2023/10/16 13:31:47;;;;;;;3.57;2.33;;;16.70;96.10;;;;;;5103175;28;20174;-86
2023/10/16 13:34:15;;;;;;;3.83;2.00;;;16.70;96.20;;;;;;5068183;28;20190;-86
2023/10/16 13:37:00;;;;;;;2.87;2.30;;;16.70;96.20;;;;;;5104174;28;20555;-85
2023/10/16 13:39:26;;;;;;;3.07;2.20;;;16.70;96.30;;;;;;5069190;28;20477;-86
2023/10/16 13:41:55;;;;;;;3.67;2.57;;;16.70;96.40;;;;;;5085006;28;20198;-85
2023/10/16 13:44:23;;;;;;;2.30;1.90;;;16.70;96.40;;;;;;5085337;28;20160;-86
2023/10/16 13:46:50;;;;;;;2.87;2.30;;;16.70;96.40;;;;;;5082658;28;20163;-87
2023/10/16 13:49:17;;;;;;;3.03;2.37;;;16.70;96.70;;;;;;5086165;28;20182;-87
2023/10/16 13:51:45;;;;;;;3.43;2.73;;;16.70;96.40;;;;;;5098125;28;20279;-87
2023/10/16 13:54:14;;;;;;;2.80;2.10;;;16.70;96.40;;;;;;5085409;28;20288;-87
2023/10/16 13:56:47;;;;;;;2.77;2.37;;;16.70;96.40;;;;;;5083364;28;20173;-86
2023/10/16 13:59:14;;;;;;;3.97;2.70;;;16.70;96.40;;;;;;5086080;28;20526;-86
2023/10/16 14:01:40;;;;;;;3.10;2.30;;;16.70;96.40;;;;;;5083063;28;20277;-86
2023/10/16 14:04:21;;;;;;;3.93;2.60;;;16.70;96.40;;;;;;5092406;28;20245;-86
2023/10/16 14:06:54;;;;;;;3.83;2.80;;;16.70;96.40;;;;;;5086645;28;20456;-86
2023/10/16 14:09:27;;;;;;;3.70;2.80;;;16.70;96.30;;;;;;5082604;28;20170;-86
2023/10/16 14:11:58;;;;;;;3.77;2.73;;;16.70;96.30;;;;;;5083467;28;20518;-86
2023/10/16 14:14:26;;;;;;;3.93;2.50;;;16.70;96.30;;;;;;5083827;28;20189;-86
2023/10/16 14:19:51;;;;;;;4.67;3.20;;;16.70;96.30;;;;;;5088955;28;20174;-86
2023/10/16 14:22:16;;;;;;;3.43;2.70;;;16.70;96.30;;;;;;5102627;28;20232;-87
2023/10/16 14:24:43;;;;;;;3.40;2.80;;;16.70;96.30;;;;;;5093122;28;20274;-87
2023/10/16 14:27:09;;;;;;;3.80;2.57;;;16.70;96.30;;;;;;5086629;28;20419;-87
2023/10/16 14:29:38;;;;;;;4.07;2.90;;;16.70;96.30;;;;;;5103934;28;20575;-88
2023/10/16 14:32:04;;;;;;;4.37;2.90;;;16.70;96.30;;;;;;5084170;28;20265;-88
2023/10/16 14:34:30;;;;;;;3.60;2.90;;;16.70;96.30;;;;;;5083576;28;20186;-87
2023/10/16 14:36:58;;;;;;;4.40;2.80;;;16.70;96.30;;;;;;5102749;28;20217;-87
2023/10/16 14:39:27;;;;;;;7.50;3.97;;;16.70;96.30;;;;;;5103824;28;20173;-87
2023/10/16 14:41:55;;;;;;;3.20;2.83;;;16.70;96.30;;;;;;5087907;28;20227;-87
2023/10/16 14:44:22;;;;;;;3.93;3.00;;;16.70;96.30;;;;;;5085328;28;20332;-87
2023/10/16 14:46:49;;;;;;;3.13;2.73;;;16.70;96.30;;;;;;5102186;28;20169;-87
2023/10/16 14:49:15;;;;;;;3.70;2.93;;;16.70;96.30;;;;;;5099361;28;20376;-87
2023/10/16 14:51:40;;;;;;;4.67;2.97;;;16.70;96.30;;;;;;5105060;28;20181;-87
2023/10/16 14:54:10;;;;;;;3.93;2.97;;;16.70;96.40;;;;;;5107887;28;20185;-86
2023/10/16 14:56:38;;;;;;;3.23;2.70;;;16.70;96.30;;;;;;5087995;28;20176;-87
2023/10/16 14:59:07;;;;;;;3.40;2.90;;;16.70;96.40;;;;;;5090300;28;20211;-87
2023/10/16 15:01:36;;;;;;;3.53;2.90;;;16.70;96.40;;;;;;5106804;28;20209;-87
2023/10/16 15:04:03;;;;;;;3.37;2.80;;;16.70;96.40;;;;;;5089058;28;20220;-88
2023/10/16 15:06:29;;;;;;;3.93;3.07;;;16.70;96.40;;;;;;5108570;28;20186;-88
2023/10/16 15:08:59;;;;;;;5.40;3.30;;;16.70;96.50;;;;;;5091872;28;20174;-88
2023/10/16 15:11:26;;;;;;;4.67;3.60;;;16.70;96.50;;;;;;5089879;28;20173;-88
2023/10/16 15:13:54;;;;;;;4.17;3.20;;;16.70;96.60;;;;;;5088780;28;20167;-88
2023/10/16 15:16:21;;;;;;;5.33;2.93;;;16.70;96.60;;;;;;5088752;28;20181;-87
2023/10/16 15:18:48;;;;;;;4.23;3.40;;;16.70;96.70;;;;;;5106684;28;20166;-88